Time;durP1;ratioP1;P1;durP2;ratioP2;P2;SDS_P1;SDS_P2;PMS_P1;PMS_P2;Temp;Humidity;BMP_temperature;BMP_pressure;BME280_temperature;BME280_humidity;BME280_pressure;Samples;Min_cycle;Max_cycle;Signal;HPM_P1;HPM_P2
2021/12/12 00:00:39;;;;;;;103.70;67.87;;;4.10;99.90;;;;;;5045948;28;20397;-75
2021/12/12 00:03:20;;;;;;;113.00;69.07;;;4.10;99.90;;;;;;5028687;28;20045;-75
2021/12/12 00:05:55;;;;;;;115.20;72.37;;;4.10;99.90;;;;;;5045551;28;20487;-74
2021/12/12 00:08:23;;;;;;;103.40;68.37;;;4.10;99.90;;;;;;5044084;28;20077;-75
2021/12/12 00:11:05;;;;;;;104.57;65.93;;;4.20;99.90;;;;;;5045568;28;21550;-74
2021/12/12 00:14:01;;;;;;;99.57;65.83;;;4.20;99.90;;;;;;5028099;28;20727;-74
2021/12/12 00:16:30;;;;;;;101.50;64.20;;;4.20;99.90;;;;;;5059167;28;20095;-74
2021/12/12 00:18:57;;;;;;;98.90;63.80;;;4.20;99.90;;;;;;5045277;28;20044;-71
2021/12/12 00:21:25;;;;;;;104.17;65.40;;;4.20;99.90;;;;;;5043848;28;20033;-72
2021/12/12 00:23:51;;;;;;;102.13;65.17;;;4.20;99.90;;;;;;5027913;28;20053;-71
2021/12/12 00:26:17;;;;;;;106.83;67.97;;;4.20;99.90;;;;;;5026335;28;20052;-71
2021/12/12 00:28:43;;;;;;;94.23;64.07;;;4.20;99.90;;;;;;5027938;28;20159;-71
2021/12/12 00:31:13;;;;;;;97.97;63.50;;;4.20;99.90;;;;;;5028144;28;20443;-71
2021/12/12 00:33:42;;;;;;;97.95;64.80;;;4.30;99.90;;;;;;5041172;28;20052;-72
2021/12/12 00:36:08;;;;;;;97.50;63.87;;;4.30;99.90;;;;;;5041756;28;20389;-71
2021/12/12 00:38:35;;;;;;;97.67;64.57;;;4.30;99.90;;;;;;5042873;28;20724;-71
2021/12/12 00:41:10;;;;;;;96.07;60.63;;;4.40;99.90;;;;;;5027819;28;20430;-71
2021/12/12 00:43:42;;;;;;;89.13;61.03;;;4.30;99.90;;;;;;5023194;28;20242;-71
2021/12/12 00:46:11;;;;;;;88.73;58.60;;;4.30;99.90;;;;;;5038274;28;20079;-71
2021/12/12 00:48:40;;;;;;;82.43;57.93;;;4.40;99.90;;;;;;5022335;28;20044;-72
2021/12/12 00:51:10;;;;;;;87.43;58.67;;;4.40;99.90;;;;;;5024108;28;20048;-71
2021/12/12 00:53:38;;;;;;;90.23;60.20;;;4.30;99.90;;;;;;5023443;28;20044;-71
2021/12/12 00:56:05;;;;;;;89.73;58.80;;;4.40;99.90;;;;;;5042975;28;20053;-71
2021/12/12 00:58:31;;;;;;;91.13;59.37;;;4.40;99.90;;;;;;5023837;28;20407;-71
2021/12/12 01:01:06;;;;;;;84.33;58.90;;;4.40;99.90;;;;;;5037098;28;20041;-72
2021/12/12 01:03:37;;;;;;;86.40;60.80;;;4.40;99.90;;;;;;5034081;28;20053;-71
2021/12/12 01:06:06;;;;;;;86.13;57.93;;;4.30;99.90;;;;;;5016870;28;20365;-72
2021/12/12 01:08:34;;;;;;;90.37;59.00;;;4.40;99.90;;;;;;5025860;28;20464;-72
2021/12/12 01:11:13;;;;;;;88.57;57.63;;;4.30;99.90;;;;;;5036034;28;20100;-72
2021/12/12 01:13:39;;;;;;;87.17;58.97;;;4.40;99.90;;;;;;5027145;28;20104;-72
2021/12/12 01:16:13;;;;;;;87.87;59.67;;;4.30;99.90;;;;;;5029388;28;20046;-71
2021/12/12 01:18:51;;;;;;;84.83;58.30;;;4.30;99.90;;;;;;5027882;28;20063;-72
2021/12/12 01:21:25;;;;;;;82.83;56.67;;;4.30;99.90;;;;;;5055883;28;20049;-72
2021/12/12 01:24:02;;;;;;;78.60;57.13;;;4.30;99.90;;;;;;5042383;28;20149;-72
2021/12/12 01:26:29;;;;;;;86.57;58.30;;;4.30;99.90;;;;;;5041467;28;20799;-72
2021/12/12 01:28:56;;;;;;;83.93;58.30;;;4.30;99.90;;;;;;5026734;28;20511;-72
2021/12/12 01:31:28;;;;;;;83.53;58.00;;;4.30;99.90;;;;;;5025937;28;20492;-71
2021/12/12 01:34:09;;;;;;;93.20;58.03;;;4.30;99.90;;;;;;5044655;28;20057;-72
2021/12/12 01:39:32;;;;;;;81.63;57.87;;;4.30;99.90;;;;;;5009088;28;20054;-72
2021/12/12 01:42:04;;;;;;;;;;;4.30;99.90;;;;;;5012445;28;20089;-71
2021/12/12 01:44:35;;;;;;;89.27;58.17;;;4.30;99.90;;;;;;5041049;28;19921;-71
2021/12/12 01:47:09;;;;;;;92.03;58.57;;;4.30;99.90;;;;;;5034956;28;20080;-72
2021/12/12 01:49:37;;;;;;;83.20;54.63;;;4.30;99.90;;;;;;5035174;28;20055;-72
2021/12/12 01:52:05;;;;;;;88.17;56.60;;;4.40;99.90;;;;;;5027246;28;20044;-72
2021/12/12 01:54:43;;;;;;;97.17;58.97;;;4.40;99.90;;;;;;5039810;28;20033;-72
2021/12/12 01:57:11;;;;;;;84.00;56.07;;;4.40;99.90;;;;;;5034623;28;20042;-72
2021/12/12 01:59:38;;;;;;;90.33;58.33;;;4.40;99.90;;;;;;5048579;28;20158;-72
2021/12/12 02:02:15;;;;;;;101.30;60.17;;;4.40;99.90;;;;;;5032659;28;20049;-71
2021/12/12 02:04:48;;;;;;;102.53;61.50;;;4.40;99.90;;;;;;5032344;28;20127;-72
2021/12/12 02:07:18;;;;;;;98.90;57.20;;;4.40;99.90;;;;;;5048846;28;20048;-72
2021/12/12 02:09:45;;;;;;;88.80;56.90;;;4.40;99.90;;;;;;5048626;28;20061;-72
2021/12/12 02:12:12;;;;;;;91.73;56.97;;;4.40;99.90;;;;;;5019844;28;20071;-71
2021/12/12 02:14:41;;;;;;;94.83;57.70;;;4.40;99.90;;;;;;5007133;28;20519;-72
2021/12/12 02:17:39;;;;;;;92.20;56.47;;;4.40;99.90;;;;;;5019033;28;20057;-72
2021/12/12 02:20:33;;;;;;;89.03;57.73;;;4.40;99.90;;;;;;5027829;28;20381;-72
2021/12/12 02:23:21;;;;;;;91.87;56.60;;;4.40;99.90;;;;;;5019074;28;20182;-71
2021/12/12 02:36:53;;;;;;;91.93;56.57;;;4.50;99.90;;;;;;5028304;28;20048;-71
2021/12/12 02:39:20;;;;;;;82.57;52.77;;;4.50;99.90;;;;;;5014432;28;20136;-71
2021/12/12 02:42:04;;;;;;;78.83;50.47;;;4.50;99.90;;;;;;5031670;28;20115;-71
2021/12/12 02:44:35;;;;;;;78.03;51.10;;;4.60;99.90;;;;;;5046800;28;20507;-71
2021/12/12 02:47:12;;;;;;;77.60;50.80;;;4.60;99.90;;;;;;5031132;28;20040;-71
2021/12/12 02:50:08;;;;;;;78.00;49.73;;;4.60;99.90;;;;;;5046341;28;20057;-71
2021/12/12 02:52:34;;;;;;;74.20;49.33;;;4.70;99.90;;;;;;5045529;28;20040;-71
2021/12/12 02:55:09;;;;;;;70.63;49.97;;;4.70;99.90;;;;;;5029908;28;20694;-72
2021/12/12 02:57:35;;;;;;;73.40;49.80;;;4.80;99.90;;;;;;5030260;28;20060;-71
2021/12/12 03:00:03;;;;;;;71.90;47.77;;;4.80;99.90;;;;;;5033817;28;20049;-72
2021/12/12 03:02:33;;;;;;;74.27;48.73;;;4.80;99.90;;;;;;5043244;28;20056;-72
2021/12/12 03:05:04;;;;;;;69.93;47.47;;;4.80;99.90;;;;;;5013518;28;20523;-72
2021/12/12 03:07:31;;;;;;;69.00;44.97;;;4.80;99.90;;;;;;5046117;28;20123;-71
2021/12/12 03:09:58;;;;;;;66.80;45.33;;;4.80;99.90;;;;;;5030664;28;20056;-72
2021/12/12 03:12:31;;;;;;;68.80;47.20;;;4.80;99.90;;;;;;5013697;28;20130;-72
2021/12/12 03:15:01;;;;;;;73.37;47.27;;;4.80;99.90;;;;;;5029796;28;20057;-72
2021/12/12 03:17:26;;;;;;;63.03;43.40;;;4.80;99.90;;;;;;5042816;28;20115;-71
2021/12/12 03:19:56;;;;;;;58.83;43.57;;;4.80;99.90;;;;;;5041009;28;20143;-71
2021/12/12 03:22:24;;;;;;;54.28;41.38;;;4.90;99.90;;;;;;5042016;28;20051;-71
2021/12/12 03:24:51;;;;;;;60.30;41.23;;;4.90;99.90;;;;;;5026396;28;20126;-71
2021/12/12 03:27:20;;;;;;;54.87;38.90;;;4.90;99.90;;;;;;5025706;28;20029;-70
2021/12/12 03:29:48;;;;;;;60.83;39.83;;;5.00;99.90;;;;;;5028077;28;20052;-71
2021/12/12 03:32:22;;;;;;;53.43;40.63;;;5.00;99.90;;;;;;5024040;28;20404;-72
2021/12/12 03:34:52;;;;;;;58.47;41.77;;;5.00;99.90;;;;;;5040602;28;20417;-71
2021/12/12 03:37:20;;;;;;;;;;;5.00;99.90;;;;;;5026600;28;20045;-71
2021/12/12 03:39:50;;;;;;;54.57;40.87;;;4.90;99.90;;;;;;5027523;28;19963;-71
2021/12/12 03:42:20;;;;;;;59.83;42.15;;;4.90;99.90;;;;;;5027029;28;20056;-71
2021/12/12 03:44:47;;;;;;;63.67;41.70;;;4.90;99.90;;;;;;5043468;28;20044;-71
2021/12/12 03:47:21;;;;;;;52.57;36.13;;;5.00;99.90;;;;;;5026159;28;20087;-71
2021/12/12 03:49:48;;;;;;;50.87;36.43;;;5.00;99.90;;;;;;5043485;28;20068;-71
2021/12/12 03:52:15;;;;;;;64.23;40.33;;;5.00;99.90;;;;;;5025135;28;20044;-71
2021/12/12 03:54:42;;;;;;;53.87;39.13;;;5.00;99.90;;;;;;5042293;28;20063;-71
2021/12/12 03:57:08;;;;;;;56.20;39.53;;;5.00;99.90;;;;;;5037674;28;21934;-71
2021/12/12 03:59:35;;;;;;;55.07;37.97;;;5.00;99.90;;;;;;5024564;28;20048;-71
2021/12/12 04:02:00;;;;;;;49.40;38.27;;;5.00;99.90;;;;;;5043374;28;20140;-71
2021/12/12 04:04:33;;;;;;;45.40;35.73;;;5.00;99.90;;;;;;5026469;28;20144;-70
2021/12/12 04:07:00;;;;;;;50.63;38.23;;;5.00;99.90;;;;;;5026119;28;20127;-71
2021/12/12 04:09:26;;;;;;;49.87;38.07;;;5.10;99.90;;;;;;5026602;28;20456;-71
2021/12/12 04:11:57;;;;;;;56.33;39.40;;;5.20;99.90;;;;;;5026648;28;20080;-71
2021/12/12 04:14:23;;;;;;;51.75;38.17;;;5.10;99.90;;;;;;5040929;28;20503;-74
2021/12/12 04:16:56;;;;;;;58.20;39.73;;;5.10;99.90;;;;;;5027035;28;20068;-73
2021/12/12 04:19:23;;;;;;;51.33;37.53;;;5.10;99.90;;;;;;5042721;28;20125;-75
2021/12/12 04:21:49;;;;;;;54.33;39.20;;;5.20;99.90;;;;;;5041201;28;20131;-75
2021/12/12 04:24:34;;;;;;;48.43;36.60;;;5.10;99.90;;;;;;5009910;28;20124;-74
2021/12/12 04:27:01;;;;;;;46.30;35.30;;;5.10;99.90;;;;;;5040259;28;20052;-74
2021/12/12 04:29:33;;;;;;;46.00;33.33;;;5.10;99.90;;;;;;5042079;28;20067;-75
2021/12/12 04:32:04;;;;;;;46.10;36.17;;;5.10;99.90;;;;;;5043182;28;20045;-74
2021/12/12 04:34:32;;;;;;;46.23;34.97;;;5.10;99.90;;;;;;5038768;28;20122;-74
2021/12/12 04:37:03;;;;;;;44.37;34.10;;;5.10;99.90;;;;;;5043131;28;20129;-75
2021/12/12 04:39:36;;;;;;;49.70;35.60;;;5.10;99.90;;;;;;5042378;28;20053;-74
2021/12/12 04:42:13;;;;;;;47.47;34.00;;;5.10;99.90;;;;;;5042510;28;20060;-74
2021/12/12 04:44:41;;;;;;;51.63;37.93;;;5.10;99.90;;;;;;5025661;28;20531;-70
2021/12/12 04:50:04;;;;;;;41.00;34.30;;;5.10;99.90;;;;;;5042397;28;20049;-71
2021/12/12 04:52:43;;;;;;;46.87;35.10;;;5.10;99.90;;;;;;5041905;28;20044;-71
2021/12/12 04:55:23;;;;;;;41.83;33.17;;;5.10;99.90;;;;;;5043964;28;20079;-70
2021/12/12 04:58:21;;;;;;;40.53;33.33;;;5.20;99.90;;;;;;5044145;28;20401;-71
2021/12/12 05:00:56;;;;;;;44.40;34.93;;;5.20;99.90;;;;;;5024775;28;20435;-71
2021/12/12 05:03:29;;;;;;;45.20;36.30;;;5.20;99.90;;;;;;5025638;28;20053;-71
2021/12/12 05:06:13;;;;;;;45.17;35.63;;;5.20;99.90;;;;;;5032466;28;20496;-71
2021/12/12 05:08:59;;;;;;;44.10;33.50;;;5.20;99.90;;;;;;5027961;28;20086;-71
2021/12/12 05:11:47;;;;;;;41.77;32.73;;;5.20;99.90;;;;;;5045137;28;20080;-71
2021/12/12 05:14:22;;;;;;;39.60;31.80;;;5.20;99.90;;;;;;5045234;28;20057;-71
2021/12/12 05:16:53;;;;;;;37.93;31.17;;;5.20;99.90;;;;;;5028578;28;20045;-73
2021/12/12 05:19:24;;;;;;;36.93;32.13;;;5.30;99.90;;;;;;5045554;28;20337;-71
2021/12/12 05:21:56;;;;;;;36.47;27.97;;;5.30;99.90;;;;;;5036586;28;20072;-72
2021/12/12 05:24:24;;;;;;;33.07;28.13;;;5.30;99.90;;;;;;5025638;28;20064;-71
2021/12/12 05:27:01;;;;;;;30.40;27.13;;;5.30;99.90;;;;;;5036827;28;20514;-71
2021/12/12 05:29:39;;;;;;;35.27;28.10;;;5.30;99.90;;;;;;5045396;28;20084;-71
2021/12/12 05:32:07;;;;;;;30.77;27.40;;;5.30;99.90;;;;;;5046031;28;20068;-71
2021/12/12 05:34:36;;;;;;;29.83;25.43;;;5.40;99.90;;;;;;5007559;28;21194;-71
2021/12/12 05:37:03;;;;;;;31.47;26.53;;;5.40;99.90;;;;;;5026172;28;20053;-71
2021/12/12 05:39:31;;;;;;;31.47;25.30;;;5.40;99.90;;;;;;5025197;28;20157;-71
2021/12/12 05:41:57;;;;;;;30.20;26.90;;;5.40;99.90;;;;;;5033494;28;20147;-72
2021/12/12 05:44:25;;;;;;;31.17;25.67;;;5.40;99.90;;;;;;5044968;28;20044;-71
2021/12/12 05:47:02;;;;;;;32.60;25.97;;;5.40;99.90;;;;;;5045671;28;20132;-70
2021/12/12 05:49:28;;;;;;;29.60;26.37;;;5.40;99.90;;;;;;5044577;28;20950;-71
2021/12/12 05:51:55;;;;;;;32.23;26.47;;;5.40;99.90;;;;;;5027209;28;20055;-71
2021/12/12 05:54:23;;;;;;;30.27;26.67;;;5.40;99.90;;;;;;5044656;28;20079;-70
2021/12/12 05:56:50;;;;;;;29.23;26.13;;;5.50;99.90;;;;;;5044850;28;20111;-71
2021/12/12 05:59:16;;;;;;;31.90;27.53;;;5.50;99.90;;;;;;5044237;28;20504;-71
2021/12/12 06:01:43;;;;;;;31.53;27.87;;;5.50;99.90;;;;;;5042014;28;20503;-71
2021/12/12 06:04:10;;;;;;;31.00;27.03;;;5.50;99.90;;;;;;5028163;28;20128;-71
2021/12/12 06:06:40;;;;;;;35.03;27.93;;;5.50;99.90;;;;;;5010717;28;20041;-75
2021/12/12 06:09:09;;;;;;;33.20;27.60;;;5.50;99.90;;;;;;5045038;28;20053;-75
2021/12/12 06:11:42;;;;;;;31.83;27.30;;;5.50;99.90;;;;;;5027473;28;20132;-74
2021/12/12 06:14:09;;;;;;;36.17;29.27;;;5.50;99.90;;;;;;5044502;28;20425;-75
2021/12/12 06:16:36;;;;;;;36.13;29.73;;;5.60;99.90;;;;;;5010658;28;20080;-75
2021/12/12 06:19:13;;;;;;;39.07;29.80;;;5.60;99.90;;;;;;5027475;28;20106;-76
2021/12/12 06:21:40;;;;;;;37.00;29.97;;;5.50;99.90;;;;;;5019856;28;20037;-75
2021/12/12 06:24:07;;;;;;;38.17;29.40;;;5.60;99.90;;;;;;5007734;28;20053;-75
2021/12/12 06:26:34;;;;;;;40.50;30.80;;;5.60;99.90;;;;;;5006912;28;20051;-75
2021/12/12 06:29:00;;;;;;;42.23;31.43;;;5.60;99.90;;;;;;5007910;28;20034;-74
2021/12/12 06:31:29;;;;;;;39.03;29.50;;;5.60;99.90;;;;;;5007533;28;20071;-74
2021/12/12 06:33:55;;;;;;;36.47;29.33;;;5.70;99.90;;;;;;5008233;28;20045;-73
2021/12/12 06:36:22;;;;;;;34.70;29.43;;;5.70;99.90;;;;;;5040765;28;20046;-74
2021/12/12 06:38:51;;;;;;;35.87;28.53;;;5.70;99.90;;;;;;5023650;28;20103;-74
2021/12/12 06:41:18;;;;;;;39.63;30.20;;;5.70;99.90;;;;;;5026114;28;20052;-77
2021/12/12 06:43:46;;;;;;;35.60;28.63;;;5.60;99.90;;;;;;5044036;28;20623;-74
2021/12/12 06:46:12;;;;;;;40.87;30.37;;;5.70;99.90;;;;;;5027467;28;20070;-74
2021/12/12 06:48:39;;;;;;;36.53;28.17;;;5.80;99.90;;;;;;5042404;28;20052;-74
2021/12/12 06:51:06;;;;;;;37.93;27.97;;;5.90;99.90;;;;;;5024089;28;20048;-74
2021/12/12 06:53:36;;;;;;;36.87;27.80;;;5.90;99.90;;;;;;5006451;28;20049;-75
2021/12/12 06:56:04;;;;;;;39.13;30.60;;;5.80;99.90;;;;;;5023261;28;20482;-75
2021/12/12 06:58:32;;;;;;;51.80;32.60;;;5.90;99.90;;;;;;5058216;28;20048;-74
2021/12/12 07:01:09;;;;;;;44.30;30.67;;;5.90;99.90;;;;;;5043470;28;20057;-75
2021/12/12 07:03:39;;;;;;;39.60;28.47;;;5.90;99.90;;;;;;5042701;28;20053;-75
2021/12/12 07:06:06;;;;;;;31.67;25.30;;;5.90;99.90;;;;;;5023198;28;20049;-75
2021/12/12 07:08:32;;;;;;;32.03;26.13;;;5.90;99.90;;;;;;5005904;28;20057;-74
2021/12/12 07:11:02;;;;;;;38.70;27.07;;;5.90;99.90;;;;;;5007249;28;20053;-75
2021/12/12 07:13:29;;;;;;;39.47;27.75;;;5.90;99.90;;;;;;5022796;28;20045;-75
2021/12/12 07:15:57;;;;;;;43.03;29.47;;;5.90;99.90;;;;;;5023130;28;20489;-75
2021/12/12 07:18:26;;;;;;;40.90;27.17;;;5.90;99.90;;;;;;5006581;28;20119;-75
2021/12/12 07:20:55;;;;;;;43.63;29.20;;;6.00;99.90;;;;;;5005966;28;20377;-75
2021/12/12 07:23:21;;;;;;;35.80;26.53;;;6.00;99.90;;;;;;5006212;28;20037;-75
2021/12/12 07:25:47;;;;;;;31.67;24.27;;;6.00;99.90;;;;;;5038561;28;20060;-75
2021/12/12 07:28:14;;;;;;;34.13;26.37;;;6.00;99.90;;;;;;5023491;28;20152;-75
2021/12/12 07:30:40;;;;;;;33.90;25.77;;;6.00;99.90;;;;;;5006492;28;20231;-71
2021/12/12 07:33:07;;;;;;;36.80;25.93;;;6.00;99.90;;;;;;5023048;28;20363;-71
2021/12/12 07:35:35;;;;;;;38.70;27.57;;;6.10;99.90;;;;;;5022980;28;20053;-71
2021/12/12 07:38:02;;;;;;;37.67;27.57;;;6.10;99.90;;;;;;5023567;28;20561;-69
2021/12/12 07:40:31;;;;;;;34.73;25.73;;;6.10;99.90;;;;;;4990523;28;20037;-70
2021/12/12 07:42:57;;;;;;;36.63;25.80;;;6.10;99.90;;;;;;5023177;28;20487;-70
2021/12/12 07:45:23;;;;;;;37.23;26.30;;;6.20;99.90;;;;;;5026160;28;20076;-70
2021/12/12 07:47:51;;;;;;;36.43;26.47;;;6.20;99.90;;;;;;5021425;28;20049;-70
2021/12/12 07:50:19;;;;;;;36.73;26.40;;;6.20;99.90;;;;;;5022505;28;20045;-70
2021/12/12 07:52:46;;;;;;;35.43;24.87;;;6.20;99.90;;;;;;5005308;28;20053;-70
2021/12/12 07:55:12;;;;;;;37.37;25.27;;;6.20;99.90;;;;;;5006153;28;20607;-70
2021/12/12 07:57:38;;;;;;;36.00;26.30;;;6.30;99.90;;;;;;4996171;28;20049;-70
2021/12/12 08:00:15;;;;;;;37.43;25.63;;;6.20;99.90;;;;;;5021922;28;20680;-70
2021/12/12 08:02:42;;;;;;;35.97;26.73;;;6.30;99.90;;;;;;5021026;28;20049;-70
2021/12/12 08:05:11;;;;;;;37.30;24.70;;;6.30;99.90;;;;;;4990894;28;20140;-70
2021/12/12 08:07:40;;;;;;;39.43;25.63;;;6.30;99.90;;;;;;5041705;28;20499;-70
2021/12/12 08:10:09;;;;;;;33.30;22.10;;;6.30;99.90;;;;;;5025636;28;20147;-70
2021/12/12 08:12:35;;;;;;;37.30;23.77;;;6.40;99.90;;;;;;5025403;28;20044;-71
2021/12/12 08:15:07;;;;;;;33.53;23.33;;;6.30;99.90;;;;;;4993162;28;20766;-70
2021/12/12 08:17:34;;;;;;;35.40;23.27;;;6.40;99.90;;;;;;5024480;28;20048;-70
2021/12/12 08:20:00;;;;;;;36.57;24.40;;;6.40;99.90;;;;;;5041690;28;20107;-70
2021/12/12 08:22:29;;;;;;;36.73;23.97;;;6.30;99.90;;;;;;5011438;28;20314;-70
2021/12/12 08:25:04;;;;;;;41.03;24.90;;;6.40;99.90;;;;;;5026302;28;20140;-70
2021/12/12 08:27:30;;;;;;;46.37;28.60;;;6.40;99.90;;;;;;5040845;28;20041;-70
2021/12/12 08:29:57;;;;;;;49.63;29.30;;;6.40;99.90;;;;;;5008778;28;20056;-70
2021/12/12 08:32:24;;;;;;;43.23;28.00;;;6.40;99.90;;;;;;5009707;28;20061;-71
2021/12/12 08:34:51;;;;;;;48.27;30.10;;;6.50;99.90;;;;;;5061832;28;20051;-70
2021/12/12 08:37:17;;;;;;;54.90;31.53;;;6.50;99.90;;;;;;5029384;28;20586;-70
2021/12/12 08:39:45;;;;;;;55.17;29.88;;;6.50;99.90;;;;;;5045281;28;20037;-70
2021/12/12 08:42:12;;;;;;;59.73;31.17;;;6.50;99.90;;;;;;5028094;28;20041;-70
2021/12/12 08:44:38;;;;;;;45.50;28.60;;;6.60;99.90;;;;;;5045580;28;20048;-70
2021/12/12 08:47:08;;;;;;;49.17;31.05;;;6.60;99.90;;;;;;5028736;28;20101;-70
2021/12/12 08:49:36;;;;;;;61.83;31.83;;;6.70;99.90;;;;;;5044644;28;20667;-70
2021/12/12 08:52:17;;;;;;;56.53;31.73;;;6.70;99.90;;;;;;5043888;28;20307;-70
2021/12/12 08:54:46;;;;;;;53.17;31.20;;;6.70;99.90;;;;;;5028155;28;20053;-70
2021/12/12 08:57:45;;;;;;;49.20;30.03;;;6.80;99.90;;;;;;5045388;28;20445;-70
2021/12/12 09:00:15;;;;;;;53.30;30.13;;;6.80;99.90;;;;;;5044416;28;20048;-70
2021/12/12 09:02:42;;;;;;;54.45;31.08;;;6.80;99.90;;;;;;5044534;28;20115;-70
2021/12/12 09:05:14;;;;;;;62.63;31.67;;;6.90;99.90;;;;;;5045170;28;20045;-70
2021/12/12 09:07:44;;;;;;;55.87;32.20;;;6.90;99.90;;;;;;5022538;28;20151;-70
2021/12/12 09:10:17;;;;;;;70.97;33.60;;;7.00;99.90;;;;;;5030544;28;20489;-70
2021/12/12 09:12:51;;;;;;;88.85;40.67;;;7.00;99.90;;;;;;5033154;28;20395;-70
2021/12/12 09:15:39;;;;;;;65.88;34.25;;;7.00;99.90;;;;;;5028896;28;20053;-70
2021/12/12 09:18:19;;;;;;;80.55;36.67;;;7.10;99.90;;;;;;5024470;28;20045;-70
2021/12/12 09:21:13;;;;;;;65.00;31.90;;;7.10;99.90;;;;;;5031977;28;20200;-70
2021/12/12 09:23:49;;;;;;;81.72;35.63;;;7.20;99.90;;;;;;5024558;28;20063;-71
2021/12/12 09:26:21;;;;;;;72.13;33.55;;;7.20;99.90;;;;;;5026170;28;20041;-71
2021/12/12 09:29:12;;;;;;;77.22;33.70;;;7.20;99.90;;;;;;5040538;28;20125;-70
2021/12/12 09:31:52;;;;;;;77.05;35.42;;;7.20;99.90;;;;;;5023226;28;20083;-71
2021/12/12 09:34:34;;;;;;;80.88;35.78;;;7.30;99.90;;;;;;5022008;28;20048;-71
2021/12/12 09:37:09;;;;;;;86.93;37.33;;;7.30;99.90;;;;;;5027788;28;20076;-71
2021/12/12 09:39:55;;;;;;;80.78;35.72;;;7.30;99.90;;;;;;5031144;28;20056;-70
2021/12/12 09:42:52;;;;;;;81.20;35.40;;;7.40;99.90;;;;;;5040042;28;20128;-70
2021/12/12 09:45:37;;;;;;;94.47;39.45;;;7.40;99.90;;;;;;5049509;28;20503;-75
2021/12/12 09:51:14;;;;;;;86.40;37.75;;;7.50;99.90;;;;;;5041063;28;20769;-75
2021/12/12 09:51:19;;;;;;;89.28;37.83;;;7.50;99.90;;;;;;5048945;28;20110;-75
2021/12/12 09:54:15;;;;;;;89.50;38.03;;;7.60;99.90;;;;;;5023906;28;20049;-75
2021/12/12 09:57:00;;;;;;;86.78;37.83;;;7.60;99.90;;;;;;5046153;28;20063;-76
2021/12/12 09:59:58;;;;;;;91.25;37.60;;;7.60;99.90;;;;;;5030193;28;20054;-76
2021/12/12 10:02:41;;;;;;;84.88;37.30;;;7.70;99.90;;;;;;5022420;28;20143;-76
2021/12/12 10:05:36;;;;;;;88.20;36.92;;;7.70;99.90;;;;;;5024555;28;20132;-76
2021/12/12 10:08:23;;;;;;;82.95;36.97;;;7.70;99.90;;;;;;5006953;28;20053;-76
2021/12/12 10:11:04;;;;;;;85.03;37.05;;;7.70;99.90;;;;;;5039860;28;20061;-76
2021/12/12 10:13:51;;;;;;;85.60;35.45;;;7.80;99.90;;;;;;5039408;28;20052;-76
2021/12/12 10:16:36;;;;;;;78.00;35.05;;;7.80;99.90;;;;;;5044505;28;20057;-76
2021/12/12 10:19:14;;;;;;;78.07;34.80;;;7.90;99.90;;;;;;5030380;28;20057;-71
2021/12/12 10:22:01;;;;;;;71.15;32.53;;;7.90;99.90;;;;;;5015098;28;20049;-71
2021/12/12 10:24:36;;;;;;;71.20;32.95;;;7.90;99.90;;;;;;5031135;28;20053;-71
2021/12/12 10:27:17;;;;;;;74.82;33.30;;;8.00;99.90;;;;;;5033436;28;20053;-70
2021/12/12 10:30:25;;;;;;;74.47;31.73;;;8.00;99.90;;;;;;5010494;28;20056;-70
2021/12/12 10:33:03;;;;;;;70.28;31.35;;;8.00;99.90;;;;;;5031806;28;20053;-70
2021/12/12 10:36:06;;;;;;;63.05;30.75;;;8.00;99.90;;;;;;5031333;28;20540;-70
2021/12/12 10:38:41;;;;;;;77.43;32.53;;;8.10;99.90;;;;;;5034181;28;20085;-70
2021/12/12 10:41:20;;;;;;;65.60;29.35;;;8.10;99.90;;;;;;5014499;28;20159;-70
2021/12/12 10:44:03;;;;;;;59.70;30.25;;;8.10;99.90;;;;;;5028462;28;20057;-70
2021/12/12 10:47:04;;;;;;;57.05;28.02;;;8.20;99.90;;;;;;5029473;28;20045;-70
2021/12/12 10:49:48;;;;;;;53.47;27.17;;;8.20;99.90;;;;;;5010851;28;20095;-70
2021/12/12 10:52:29;;;;;;;59.72;29.55;;;8.30;99.90;;;;;;5032475;28;20511;-70
2021/12/12 10:55:04;;;;;;;56.30;29.10;;;8.30;99.90;;;;;;5012599;28;20061;-70
2021/12/12 10:57:34;;;;;;;61.90;29.50;;;8.40;99.90;;;;;;5047287;28;20365;-70
2021/12/12 11:00:22;;;;;;;54.13;25.77;;;8.40;99.90;;;;;;5034714;28;20059;-70
2021/12/12 11:02:50;;;;;;;55.55;27.48;;;8.40;99.90;;;;;;5023336;28;20484;-70
2021/12/12 11:05:21;;;;;;;42.47;23.63;;;8.40;99.90;;;;;;5032053;28;20113;-70
2021/12/12 11:08:02;;;;;;;53.83;26.92;;;8.40;99.90;;;;;;5026306;28;20136;-70
2021/12/12 11:10:33;;;;;;;52.70;26.17;;;8.50;99.90;;;;;;5035431;28;20641;-71
2021/12/12 11:13:05;;;;;;;51.88;27.65;;;8.50;99.90;;;;;;5026771;28;20076;-71
2021/12/12 11:15:47;;;;;;;53.20;26.90;;;8.50;99.90;;;;;;5025883;28;20065;-71
2021/12/12 11:18:22;;;;;;;48.13;26.17;;;8.60;99.90;;;;;;5031453;28;20049;-71
2021/12/12 11:20:59;;;;;;;55.20;27.80;;;8.60;99.90;;;;;;5029097;28;20060;-71
2021/12/12 11:23:33;;;;;;;63.20;28.52;;;8.60;99.90;;;;;;5032176;28;20052;-71
2021/12/12 11:26:09;;;;;;;52.97;26.73;;;8.60;99.90;;;;;;5029936;28;20048;-71
2021/12/12 11:28:40;;;;;;;54.70;27.52;;;8.60;99.90;;;;;;5038633;28;20045;-71
2021/12/12 11:31:15;;;;;;;;;;;8.60;99.90;;;;;;5026983;28;20045;-71
2021/12/12 11:33:44;;;;;;;49.63;26.88;;;8.60;99.90;;;;;;5028901;28;19921;-76
2021/12/12 11:36:18;;;;;;;61.15;27.67;;;8.60;99.90;;;;;;5026748;28;20689;-76
2021/12/12 11:39:01;;;;;;;53.88;27.17;;;8.60;99.90;;;;;;5025807;28;20041;-76
2021/12/12 11:41:27;;;;;;;53.67;28.08;;;8.60;99.90;;;;;;5011820;28;20051;-76
2021/12/12 11:44:16;;;;;;;65.20;29.08;;;8.60;99.90;;;;;;5029746;28;20407;-76
2021/12/12 11:46:59;;;;;;;65.93;29.13;;;8.70;99.90;;;;;;5031980;28;20049;-76
2021/12/12 11:49:50;;;;;;;54.75;27.58;;;8.70;99.90;;;;;;5029608;28;20076;-75
2021/12/12 11:52:58;;;;;;;59.40;28.50;;;8.70;99.90;;;;;;5029140;28;20049;-76
2021/12/12 11:55:30;;;;;;;52.38;27.88;;;8.70;99.90;;;;;;4998318;28;20037;-71
2021/12/12 11:58:23;;;;;;;58.78;27.40;;;8.70;99.90;;;;;;5039543;28;20053;-71
2021/12/12 12:01:20;;;;;;;58.05;27.55;;;8.70;99.90;;;;;;5028275;28;20100;-71
2021/12/12 12:04:07;;;;;;;61.13;28.42;;;8.70;99.90;;;;;;5026968;28;20187;-71
2021/12/12 12:06:45;;;;;;;55.83;26.77;;;8.80;99.90;;;;;;5007684;28;20121;-70
2021/12/12 12:09:31;;;;;;;64.32;28.17;;;8.80;99.90;;;;;;5007427;28;20633;-70
2021/12/12 12:12:29;;;;;;;61.17;29.10;;;8.80;99.90;;;;;;5027569;28;20408;-70
2021/12/12 12:15:18;;;;;;;65.05;29.40;;;8.90;99.90;;;;;;5022836;28;20527;-70
2021/12/12 12:18:04;;;;;;;57.45;27.58;;;8.90;99.90;;;;;;5010848;28;20049;-71
2021/12/12 12:20:44;;;;;;;66.57;29.92;;;8.90;99.90;;;;;;5022093;28;20041;-71
2021/12/12 12:23:48;;;;;;;60.88;29.25;;;8.90;99.90;;;;;;5022268;28;20056;-71
2021/12/12 12:29:31;;;;;;;64.22;29.17;;;8.90;99.90;;;;;;5020592;28;20088;-71
2021/12/12 12:32:34;;;;;;;82.90;31.70;;;8.90;99.90;;;;;;4998650;28;20516;-71
2021/12/12 12:35:18;;;;;;;66.70;30.70;;;9.00;99.90;;;;;;5031783;28;20057;-75
2021/12/12 12:38:08;;;;;;;67.40;29.23;;;9.00;99.90;;;;;;5016875;28;20052;-76
2021/12/12 12:40:56;;;;;;;70.68;31.30;;;9.00;99.90;;;;;;5031040;28;20084;-75
2021/12/12 12:43:47;;;;;;;101.85;34.67;;;9.00;99.90;;;;;;5028635;28;20041;-76
2021/12/12 12:46:31;;;;;;;;;;;9.00;99.90;;;;;;5025961;28;20061;-76
2021/12/12 12:49:34;;;;;;;64.00;29.77;;;9.00;99.90;;;;;;5033724;28;19925;-76
2021/12/12 12:52:27;;;;;;;66.18;28.35;;;9.10;99.90;;;;;;5025745;28;20274;-76
2021/12/12 12:55:30;;;;;;;60.65;27.42;;;9.20;99.90;;;;;;5018029;28;20041;-71
2021/12/12 12:58:11;;;;;;;65.00;28.42;;;9.20;99.90;;;;;;5030383;28;20109;-71
2021/12/12 13:00:38;;;;;;;65.85;28.75;;;9.20;99.90;;;;;;5039148;28;20081;-71
2021/12/12 13:03:28;;;;;;;61.88;28.13;;;9.20;99.90;;;;;;5019000;28;20046;-72
2021/12/12 13:06:00;;;;;;;;;;;9.30;99.90;;;;;;5032080;28;20045;-71
2021/12/12 13:09:04;;;;;;;66.55;28.38;;;9.30;99.90;;;;;;5041013;28;19986;-71
2021/12/12 13:11:48;;;;;;;77.22;29.27;;;9.30;99.90;;;;;;5055342;28;20119;-71
2021/12/12 13:14:13;;;;;;;83.70;30.55;;;9.40;99.90;;;;;;5056272;28;20045;-71
2021/12/12 13:16:40;;;;;;;74.80;28.95;;;9.40;99.90;;;;;;5033314;28;20037;-72
2021/12/12 13:19:29;;;;;;;83.57;30.10;;;9.40;99.90;;;;;;5032841;28;20041;-71
2021/12/12 13:22:15;;;;;;;85.80;30.75;;;9.40;99.90;;;;;;5027845;28;20196;-71
2021/12/12 13:24:47;;;;;;;81.47;30.75;;;9.40;99.90;;;;;;5024868;28;20045;-71
2021/12/12 13:28:37;;;;;;;78.82;29.05;;;9.40;99.90;;;;;;5044570;28;20050;-72
2021/12/12 13:31:01;;;;;;;86.15;31.13;;;9.40;99.90;;;;;;5018901;28;20065;-71
2021/12/12 13:33:56;;;;;;;84.10;30.30;;;9.40;99.90;;;;;;5035588;28;20049;-71
2021/12/12 13:36:50;;;;;;;71.85;29.85;;;9.50;99.90;;;;;;5037335;28;20091;-71